Time;durP1;ratioP1;P1;durP2;ratioP2;P2;SDS_P1;SDS_P2;PMS_P1;PMS_P2;Temp;Humidity;BMP_temperature;BMP_pressure;BME280_temperature;BME280_humidity;BME280_pressure;Samples;Min_cycle;Max_cycle;Signal;HPM_P1;HPM_P2
2023/05/29 00:00:42;;;;;;;12.63;6.70;;;;;13.80;101672.00;;;;10526416;28;20573;-77
2023/05/29 00:05:43;;;;;;;11.97;6.30;;;;;13.80;101680.00;;;;10491105;28;20207;-78
2023/05/29 00:10:44;;;;;;;16.83;7.23;;;;;13.70;101680.00;;;;10505894;28;20209;-78
2023/05/29 00:15:47;;;;;;;13.40;7.37;;;;;13.70;101696.00;;;;10474054;28;20559;-78
2023/05/29 00:20:48;;;;;;;14.80;7.30;;;;;13.60;101696.00;;;;10500493;28;20791;-78
2023/05/29 00:25:49;;;;;;;12.83;7.23;;;;;13.50;101689.00;;;;10490723;28;20209;-78
2023/05/29 00:30:51;;;;;;;16.77;7.73;;;;;13.40;101698.00;;;;10503622;28;20200;-77
2023/05/29 00:35:52;;;;;;;13.13;7.30;;;;;13.30;101699.00;;;;10530790;28;20235;-78
2023/05/29 00:40:53;;;;;;;11.90;7.63;;;;;13.20;101698.00;;;;10481253;28;20224;-79
2023/05/29 00:45:55;;;;;;;14.10;7.80;;;;;13.20;101698.00;;;;10518711;28;20225;-78
2023/05/29 00:50:56;;;;;;;11.20;7.77;;;;;13.10;101704.00;;;;10483687;28;20212;-78
2023/05/29 00:55:59;;;;;;;14.67;8.27;;;;;13.00;101702.00;;;;10497889;28;20246;-78
2023/05/29 01:01:03;;;;;;;15.27;9.47;;;;;12.90;101702.00;;;;10505550;28;20216;-78
2023/05/29 01:06:04;;;;;;;12.43;7.67;;;;;12.80;101709.00;;;;10511081;28;20626;-78
2023/05/29 01:11:17;;;;;;;17.07;7.93;;;;;12.70;101718.00;;;;10514806;28;20561;-77
2023/05/29 01:16:30;;;;;;;16.73;8.27;;;;;12.60;101711.00;;;;10529461;28;20697;-77
2023/05/29 01:22:06;;;;;;;16.03;8.37;;;;;12.60;101718.00;;;;10523547;28;20252;-77
2023/05/29 01:27:10;;;;;;;11.97;7.57;;;;;12.50;101730.00;;;;10483003;28;20543;-77
2023/05/29 01:32:11;;;;;;;15.23;7.47;;;;;12.60;101727.00;;;;10526624;28;20201;-78
2023/05/29 01:37:13;;;;;;;12.37;7.83;;;;;12.60;101730.00;;;;10503743;28;20555;-78
2023/05/29 01:42:14;;;;;;;12.73;7.70;;;;;12.60;101741.00;;;;10521431;28;20658;-78
2023/05/29 01:47:16;;;;;;;14.87;7.73;;;;;12.60;101743.00;;;;10517481;28;20201;-78
2023/05/29 01:52:18;;;;;;;16.97;7.73;;;;;12.60;101742.00;;;;10519462;28;20545;-79
2023/05/29 01:57:20;;;;;;;12.47;7.43;;;;;12.60;101739.00;;;;10493246;28;20213;-78
2023/05/29 02:02:25;;;;;;;15.70;7.80;;;;;12.70;101737.00;;;;10490886;28;20224;-77
2023/05/29 02:07:26;;;;;;;12.40;7.13;;;;;12.70;101749.00;;;;10487767;28;20588;-78
2023/05/29 02:12:27;;;;;;;12.67;6.57;;;;;12.60;101750.00;;;;10529569;28;20230;-77
2023/05/29 02:17:28;;;;;;;15.63;7.23;;;;;12.60;101747.00;;;;10505089;28;20667;-77
2023/05/29 02:22:30;;;;;;;14.23;6.87;;;;;12.60;101752.00;;;;10515755;28;20208;-77
2023/05/29 02:27:34;;;;;;;16.70;5.80;;;;;12.40;101747.00;;;;10509657;28;20193;-76
2023/05/29 02:32:35;;;;;;;13.60;5.13;;;;;12.30;101758.00;;;;10485963;28;20675;-78
2023/05/29 02:37:39;;;;;;;17.43;5.97;;;;;12.10;101759.00;;;;10488627;28;20682;-77
2023/05/29 02:42:40;;;;;;;19.30;5.47;;;;;12.00;101745.00;;;;10480357;28;20207;-77
2023/05/29 02:47:42;;;;;;;12.80;4.67;;;;;11.80;101754.00;;;;10511913;28;20196;-77
2023/05/29 02:52:43;;;;;;;14.50;4.57;;;;;11.70;101754.00;;;;10523585;28;20663;-78
2023/05/29 02:57:45;;;;;;;12.63;5.03;;;;;11.60;101752.00;;;;10519756;28;20574;-77
2023/05/29 03:02:46;;;;;;;15.67;5.33;;;;;11.50;101753.00;;;;10493906;28;20228;-77
2023/05/29 03:07:48;;;;;;;13.27;5.10;;;;;11.40;101758.00;;;;10507893;28;20203;-78
2023/05/29 03:12:49;;;;;;;15.70;5.17;;;;;11.30;101761.00;;;;10511214;28;20205;-77
2023/05/29 03:17:51;;;;;;;7.03;3.37;;;;;11.20;101768.00;;;;10501689;28;20790;-78
2023/05/29 03:22:57;;;;;;;9.33;4.10;;;;;11.10;101778.00;;;;10466667;28;20193;-77
2023/05/29 03:27:59;;;;;;;10.80;4.10;;;;;11.10;101775.00;;;;10501329;28;20347;-78
2023/05/29 03:33:03;;;;;;;16.17;3.47;;;;;11.00;101775.00;;;;10501192;28;20231;-78
2023/05/29 03:38:23;;;;;;;11.00;3.53;;;;;11.00;101776.00;;;;10499218;28;20209;-78
2023/05/29 03:43:28;;;;;;;12.90;3.87;;;;;10.90;101773.00;;;;10482399;28;20216;-77
2023/05/29 03:48:29;;;;;;;14.30;4.03;;;;;10.90;101774.00;;;;10489313;28;20212;-77
2023/05/29 03:53:31;;;;;;;14.73;3.90;;;;;10.90;101792.00;;;;10511285;28;20208;-77
2023/05/29 03:58:32;;;;;;;9.40;3.27;;;;;10.90;101795.00;;;;10519970;28;20213;-77
2023/05/29 04:03:36;;;;;;;14.73;4.50;;;;;11.00;101798.00;;;;10464140;28;20378;-78
2023/05/29 04:08:37;;;;;;;16.10;4.63;;;;;11.00;101805.00;;;;10489558;28;20249;-77
2023/05/29 04:13:39;;;;;;;10.93;3.77;;;;;11.10;101803.00;;;;10482260;28;20213;-77
2023/05/29 04:18:41;;;;;;;14.73;2.90;;;;;11.20;101818.00;;;;10504309;28;20309;-78
2023/05/29 04:23:42;;;;;;;13.23;3.20;;;;;11.20;101833.00;;;;10511854;28;20232;-77
2023/05/29 04:28:44;;;;;;;11.60;3.80;;;;;11.20;101838.00;;;;10502216;28;20201;-77
2023/05/29 04:33:46;;;;;;;11.83;3.13;;;;;11.30;101833.00;;;;10499595;28;20205;-77
2023/05/29 04:38:50;;;;;;;11.37;3.10;;;;;11.40;101834.00;;;;10472980;28;20213;-77
2023/05/29 04:43:53;;;;;;;10.63;3.40;;;;;11.40;101835.00;;;;10509748;28;20288;-78
2023/05/29 04:48:54;;;;;;;13.37;3.50;;;;;11.50;101853.00;;;;10505344;28;20798;-78
2023/05/29 04:53:56;;;;;;;15.20;4.00;;;;;11.70;101857.00;;;;10526700;28;20196;-78
2023/05/29 04:58:58;;;;;;;11.90;2.93;;;;;11.90;101853.00;;;;10440000;28;20214;-77
2023/05/29 05:04:00;;;;;;;10.93;3.00;;;;;12.10;101855.00;;;;10490279;28;20213;-78
2023/05/29 05:09:01;;;;;;;10.77;2.93;;;;;12.30;101855.00;;;;10467493;28;20266;-77
2023/05/29 05:14:03;;;;;;;13.57;3.40;;;;;12.60;101871.00;;;;10521372;28;20197;-78
2023/05/29 05:19:05;;;;;;;10.03;3.00;;;;;12.90;101859.00;;;;10514548;28;20214;-77
2023/05/29 05:24:09;;;;;;;9.30;3.07;;;;;13.20;101865.00;;;;10495337;28;20299;-78
2023/05/29 05:29:14;;;;;;;10.57;3.10;;;;;13.40;101865.00;;;;10465898;28;20551;-78
2023/05/29 05:34:17;;;;;;;11.50;3.13;;;;;13.60;101864.00;;;;10510279;28;20599;-78
2023/05/29 05:39:19;;;;;;;10.20;3.37;;;;;13.90;101871.00;;;;10500811;28;20221;-77
2023/05/29 05:44:22;;;;;;;14.93;3.13;;;;;14.40;101872.00;;;;10468075;28;20521;-78
2023/05/29 05:49:33;;;;;;;9.07;2.83;;;;;14.60;101878.00;;;;10484913;28;20221;-77
2023/05/29 05:54:35;;;;;;;13.57;2.97;;;;;14.60;101880.00;;;;10523393;28;20565;-78
2023/05/29 05:59:37;;;;;;;14.50;3.47;;;;;14.80;101880.00;;;;10485125;28;20244;-77
2023/05/29 06:04:40;;;;;;;14.13;3.60;;;;;14.90;101884.00;;;;10485016;28;20206;-78
2023/05/29 06:09:42;;;;;;;12.87;4.33;;;;;15.30;101886.00;;;;10505470;28;20201;-78
2023/05/29 06:14:44;;;;;;;12.77;3.50;;;;;15.70;101893.00;;;;10469980;28;20235;-76
2023/05/29 06:19:45;;;;;;;16.07;3.83;;;;;15.90;101881.00;;;;10523218;28;20255;-78
2023/05/29 06:24:47;;;;;;;12.97;3.93;;;;;16.30;101881.00;;;;10523959;28;20535;-78
2023/05/29 06:29:48;;;;;;;9.82;2.88;;;;;16.40;101883.00;;;;10542645;28;20201;-77
2023/05/29 06:34:49;;;;;;;12.05;3.08;;;;;16.70;101881.00;;;;10508929;28;20270;-77
2023/05/29 06:39:51;;;;;;;10.82;2.78;;;;;16.90;101880.00;;;;10476860;28;20678;-77
2023/05/29 06:44:52;;;;;;;14.95;3.35;;;;;17.20;101888.00;;;;10478716;28;20199;-75
2023/05/29 06:49:54;;;;;;;10.02;3.20;;;;;17.60;101889.00;;;;10476655;28;20209;-75
2023/05/29 06:54:56;;;;;;;12.90;3.60;;;;;17.80;101887.00;;;;10484239;28;20213;-72
2023/05/29 06:59:58;;;;;;;9.35;3.38;;;;;18.10;101895.00;;;;10447065;28;20338;-73
2023/05/29 07:05:00;;;;;;;13.50;3.88;;;;;18.40;101894.00;;;;10457905;28;20299;-73
2023/05/29 07:10:18;;;;;;;13.85;3.78;;;;;18.40;101894.00;;;;10427783;28;20254;-75
2023/05/29 07:15:19;;;;;;;9.38;3.30;;;;;18.80;101882.00;;;;10444283;28;20230;-72
2023/05/29 07:20:21;;;;;;;12.73;3.00;;;;;19.40;101882.00;;;;10475018;28;20221;-72
2023/05/29 07:25:23;;;;;;;9.23;3.08;;;;;19.70;101882.00;;;;10478009;28;20271;-73
2023/05/29 07:30:24;;;;;;;11.07;2.55;;;;;19.80;101880.00;;;;10461404;28;20301;-74
2023/05/29 07:35:28;;;;;;;10.23;2.70;;;;;20.10;101892.00;;;;10441770;28;20205;-74
2023/05/29 07:40:29;;;;;;;11.90;2.72;;;;;20.30;101890.00;;;;10508078;28;20249;-74
2023/05/29 07:45:34;;;;;;;12.02;3.10;;;;;20.60;101882.00;;;;10504489;28;20196;-74
2023/05/29 07:50:36;;;;;;;11.85;3.10;;;;;20.70;101878.00;;;;10534331;28;20288;-77
2023/05/29 07:55:38;;;;;;;14.73;3.72;;;;;21.00;101886.00;;;;10458263;28;20220;-75
2023/05/29 08:00:39;;;;;;;7.63;3.15;;;;;21.30;101883.00;;;;10426897;28;20275;-75
2023/05/29 08:05:42;;;;;;;10.30;2.53;;;;;21.40;101888.00;;;;10473353;28;20213;-73
2023/05/29 08:10:47;;;;;;;11.88;3.28;;;;;21.40;101891.00;;;;10465648;28;20200;-73
2023/05/29 08:15:48;;;;;;;10.13;3.08;;;;;21.30;101883.00;;;;10483368;28;20230;-79
2023/05/29 08:20:50;;;;;;;8.35;2.92;;;;;21.40;101885.00;;;;10502864;28;20257;-73
2023/05/29 08:25:53;;;;;;;11.57;2.75;;;;;21.70;101889.00;;;;10488937;28;20200;-72
2023/05/29 08:30:54;;;;;;;12.48;3.05;;;;;22.50;101891.00;;;;10503647;28;20570;-76
2023/05/29 08:35:58;;;;;;;8.98;2.67;;;;;22.80;101883.00;;;;10459945;28;20213;-77
2023/05/29 08:40:59;;;;;;;9.88;2.83;;;;;23.30;101887.00;;;;10461457;28;20248;-74
2023/05/29 08:46:02;;;;;;;12.57;3.83;;;;;23.60;101886.00;;;;10470254;28;20270;-73
2023/05/29 08:51:05;;;;;;;9.63;2.70;;;;;23.60;101897.00;;;;10483039;28;20209;-74
2023/05/29 08:56:07;;;;;;;10.88;3.17;;;;;23.60;101898.00;;;;10506918;28;20205;-74
2023/05/29 09:01:08;;;;;;;10.50;3.70;;;;;23.70;101900.00;;;;10501449;28;20216;-73
2023/05/29 09:06:10;;;;;;;11.30;2.80;;;;;24.00;101908.00;;;;10488184;28;20308;-75
2023/05/29 09:11:11;;;;;;;9.68;3.03;;;;;23.90;101908.00;;;;10461867;28;20283;-74
2023/05/29 09:16:12;;;;;;;13.38;3.10;;;;;24.00;101903.00;;;;10466090;28;20208;-74
2023/05/29 09:21:27;;;;;;;11.15;2.92;;;;;24.40;101899.00;;;;10432390;28;20239;-74
2023/05/29 09:26:28;;;;;;;14.32;3.83;;;;;24.40;101919.00;;;;10499227;28;20723;-73
2023/05/29 09:31:30;;;;;;;12.98;3.78;;;;;24.50;101915.00;;;;10502094;28;20202;-78
2023/05/29 09:36:32;;;;;;;9.30;3.20;;;;;24.70;101921.00;;;;10523554;28;20225;-75
2023/05/29 09:41:33;;;;;;;7.50;3.03;;;;;24.70;101923.00;;;;10505936;28;20299;-74
2023/05/29 09:46:35;;;;;;;9.02;2.38;;;;;25.00;101916.00;;;;10511649;28;20210;-75
2023/05/29 09:51:37;;;;;;;14.13;3.55;;;;;24.70;101921.00;;;;10481060;28;20217;-76
2023/05/29 09:56:40;;;;;;;9.35;3.22;;;;;24.90;101912.00;;;;10467456;28;20219;-75
2023/05/29 10:01:46;;;;;;;10.00;3.10;;;;;25.30;101898.00;;;;10428135;28;20211;-78
2023/05/29 10:06:49;;;;;;;10.80;3.28;;;;;25.90;101904.00;;;;10517265;28;20201;-78
2023/05/29 10:11:53;;;;;;;8.60;2.92;;;;;26.00;101900.00;;;;10519380;28;20210;-74
2023/05/29 10:16:57;;;;;;;8.05;2.80;;;;;26.00;101896.00;;;;10480784;28;20234;-75
2023/05/29 10:22:01;;;;;;;9.88;3.08;;;;;25.80;101892.00;;;;10515385;28;20583;-74
2023/05/29 10:27:04;;;;;;;10.57;2.92;;;;;25.80;101903.00;;;;10517464;28;20198;-74
2023/05/29 10:32:28;;;;;;;9.60;2.92;;;;;26.10;101899.00;;;;10512334;28;20203;-75
2023/05/29 10:37:52;;;;;;;7.70;3.08;;;;;26.00;101901.00;;;;10499086;28;20204;-74
2023/05/29 10:42:58;;;;;;;10.30;2.95;;;;;26.30;101907.00;;;;10495208;28;21283;-75
2023/05/29 10:48:08;;;;;;;8.52;2.53;;;;;26.70;101890.00;;;;10538854;28;20200;-74
2023/05/29 10:53:13;;;;;;;8.77;2.80;;;;;27.00;101888.00;;;;10497479;28;20201;-76
2023/05/29 10:58:18;;;;;;;7.30;2.55;;;;;27.00;101885.00;;;;10501512;28;20262;-79
2023/05/29 11:03:21;;;;;;;8.20;2.35;;;;;27.00;101887.00;;;;10537018;28;20220;-79
2023/05/29 11:08:45;;;;;;;10.10;2.53;;;;;27.60;101894.00;;;;10541934;28;20196;-80
2023/05/29 11:13:54;;;;;;;7.38;2.50;;;;;28.00;101888.00;;;;10512492;28;20207;-74
2023/05/29 11:18:56;;;;;;;6.85;2.33;;;;;28.10;101875.00;;;;10535465;28;20217;-74
2023/05/29 11:24:03;;;;;;;8.15;2.90;;;;;28.10;101874.00;;;;10507931;28;20208;-75
2023/05/29 11:29:11;;;;;;;6.80;2.53;;;;;28.20;101863.00;;;;10507143;28;20205;-74
2023/05/29 11:34:15;;;;;;;8.65;2.92;;;;;28.30;101861.00;;;;10494872;28;20664;-74
2023/05/29 11:39:16;;;;;;;8.85;2.63;;;;;28.60;101872.00;;;;10514552;28;20216;-83
2023/05/29 11:44:17;;;;;;;9.98;2.83;;;;;28.30;101864.00;;;;10508070;28;20219;-75
2023/05/29 11:49:45;;;;;;;6.78;3.47;;;;;28.30;101856.00;;;;10532483;28;20209;-74
2023/05/29 11:54:47;;;;;;;7.90;2.55;;;;;28.10;101850.00;;;;10484507;28;20212;-74
2023/05/29 11:59:52;;;;;;;11.43;2.78;;;;;28.10;101849.00;;;;10507271;28;20218;-74
2023/05/29 12:05:04;;;;;;;7.85;2.85;;;;;28.60;101842.00;;;;10509980;28;20212;-74
2023/05/29 12:10:17;;;;;;;9.02;2.90;;;;;29.10;101849.00;;;;10508304;28;20292;-79
2023/05/29 12:15:19;;;;;;;9.93;2.92;;;;;29.20;101836.00;;;;10495735;28;20205;-79
2023/05/29 12:20:23;;;;;;;8.40;2.50;;;;;29.10;101844.00;;;;10522257;28;20257;-78
2023/05/29 12:25:25;;;;;;;7.32;2.53;;;;;28.90;101843.00;;;;10507019;28;20284;-78
2023/05/29 12:30:26;;;;;;;8.23;2.33;;;;;29.00;101848.00;;;;10513906;28;20595;-79
2023/05/29 12:35:35;;;;;;;6.07;2.40;;;;;28.90;101849.00;;;;10495609;28;20209;-73
2023/05/29 12:40:37;;;;;;;7.57;2.63;;;;;28.80;101840.00;;;;10497058;28;20228;-72
2023/05/29 12:45:39;;;;;;;6.35;2.88;;;;;28.80;101836.00;;;;10487747;28;20323;-72
2023/05/29 12:50:40;;;;;;;6.15;2.28;;;;;29.10;101835.00;;;;10508219;28;20209;-82
2023/05/29 12:55:43;;;;;;;9.57;2.90;;;;;29.30;101852.00;;;;10481199;28;20201;-82
2023/05/29 13:00:47;;;;;;;10.07;2.88;;;;;29.00;101843.00;;;;10507405;28;20217;-82
2023/05/29 13:05:50;;;;;;;8.13;2.72;;;;;29.10;101848.00;;;;10511717;28;20220;-82
2023/05/29 13:10:51;;;;;;;8.00;2.30;;;;;28.80;101854.00;;;;10525445;28;20230;-81
2023/05/29 13:15:53;;;;;;;6.78;2.80;;;;;29.00;101838.00;;;;10521366;28;20246;-79
2023/05/29 13:20:54;;;;;;;5.20;2.50;;;;;28.90;101831.00;;;;10516667;28;20228;-80
2023/05/29 13:25:56;;;;;;;8.73;2.80;;;;;28.60;101847.00;;;;10506001;28;20240;-81
2023/05/29 13:30:57;;;;;;;9.80;2.92;;;;;28.60;101834.00;;;;10520923;28;20670;-82
2023/05/29 13:35:59;;;;;;;10.60;2.70;;;;;28.60;101843.00;;;;10479467;28;20295;-82
2023/05/29 13:41:01;;;;;;;7.85;3.25;;;;;28.70;101841.00;;;;10510959;28;20223;-82
2023/05/29 13:46:02;;;;;;;6.00;2.47;;;;;28.70;101833.00;;;;10509561;28;20224;-82
2023/05/29 13:51:04;;;;;;;9.25;2.63;;;;;28.60;101849.00;;;;10492590;28;20202;-84
2023/05/29 13:56:05;;;;;;;6.22;2.72;;;;;28.40;101833.00;;;;10517777;28;20681;-82
2023/05/29 14:01:07;;;;;;;7.72;3.10;;;;;28.40;101837.00;;;;10503940;28;20270;-83
2023/05/29 14:06:08;;;;;;;9.80;2.95;;;;;28.10;101839.00;;;;10475860;28;20216;-82
2023/05/29 14:11:09;;;;;;;9.52;3.03;;;;;28.00;101828.00;;;;10497421;28;20658;-81
2023/05/29 14:16:11;;;;;;;9.95;2.58;;;;;27.90;101819.00;;;;10516334;28;20737;-81
2023/05/29 14:21:13;;;;;;;8.55;2.70;;;;;27.50;101823.00;;;;10511063;28;20279;-83
2023/05/29 14:26:14;;;;;;;7.60;2.90;;;;;27.50;101827.00;;;;10518788;28;20250;-83
2023/05/29 14:31:16;;;;;;;5.85;2.78;;;;;27.50;101817.00;;;;10521906;28;20208;-82
2023/05/29 14:36:17;;;;;;;6.63;2.72;;;;;27.60;101819.00;;;;10525366;28;20224;-83
2023/05/29 14:41:18;;;;;;;9.93;3.20;;;;;27.50;101807.00;;;;10512009;28;20221;-82
2023/05/29 14:46:19;;;;;;;7.57;2.78;;;;;27.30;101816.00;;;;10513480;28;20622;-82
2023/05/29 14:51:23;;;;;;;9.85;2.80;;;;;27.40;101814.00;;;;10492332;28;20296;-83
2023/05/29 14:56:24;;;;;;;6.43;2.67;;;;;27.60;101822.00;;;;10503291;28;20243;-83
2023/05/29 15:01:25;;;;;;;7.00;2.20;;;;;27.90;101805.00;;;;10515691;28;20721;-74
2023/05/29 15:06:28;;;;;;;7.47;2.65;;;;;28.00;101818.00;;;;10506011;28;20687;-76
2023/05/29 15:11:33;;;;;;;5.95;2.42;;;;;27.90;101823.00;;;;10490421;28;20633;-75
2023/05/29 15:16:35;;;;;;;7.05;2.78;;;;;27.30;101830.00;;;;10475787;28;20209;-80
2023/05/29 15:21:36;;;;;;;6.68;2.78;;;;;27.50;101820.00;;;;10507561;28;20221;-81
2023/05/29 15:26:38;;;;;;;7.25;2.70;;;;;27.30;101813.00;;;;10507137;28;20197;-81
2023/05/29 15:31:39;;;;;;;8.63;2.88;;;;;26.60;101823.00;;;;10510975;28;20276;-80
2023/05/29 15:36:41;;;;;;;9.80;2.75;;;;;26.20;101823.00;;;;10530284;28;20200;-81
2023/05/29 15:41:42;;;;;;;8.65;2.80;;;;;25.60;101825.00;;;;10493009;28;20596;-79
2023/05/29 15:46:43;;;;;;;5.95;2.38;;;;;25.00;101820.00;;;;10519361;28;20228;-75
2023/05/29 15:51:45;;;;;;;5.80;2.60;;;;;24.80;101819.00;;;;10487342;28;20271;-75
2023/05/29 15:56:46;;;;;;;10.98;3.63;;;;;24.40;101811.00;;;;10508165;28;20209;-77
2023/05/29 16:01:47;;;;;;;5.13;2.30;;;;;23.80;101806.00;;;;10491173;28;20240;-78
2023/05/29 16:06:49;;;;;;;11.70;2.92;;;;;23.50;101810.00;;;;10474573;28;20253;-77
2023/05/29 16:11:50;;;;;;;12.00;2.63;;;;;23.50;101814.00;;;;10488080;28;20658;-78
2023/05/29 16:16:51;;;;;;;9.40;2.53;;;;;23.30;101812.00;;;;10486936;28;20254;-77
2023/05/29 16:21:53;;;;;;;10.60;2.58;;;;;22.90;101813.00;;;;10491919;28;20524;-78
2023/05/29 16:26:54;;;;;;;7.50;2.60;;;;;22.60;101818.00;;;;10529262;28;20208;-77
2023/05/29 16:31:55;;;;;;;7.05;2.47;;;;;22.30;101824.00;;;;10512819;28;20265;-78
2023/05/29 16:36:57;;;;;;;8.43;2.20;;;;;22.10;101816.00;;;;10493360;28;20570;-81
2023/05/29 16:41:58;;;;;;;8.55;2.47;;;;;21.80;101812.00;;;;10474544;28;20692;-82
2023/05/29 16:47:01;;;;;;;8.88;2.92;;;;;21.70;101815.00;;;;10508499;28;20569;-82
2023/05/29 16:52:03;;;;;;;7.70;2.38;;;;;21.50;101810.00;;;;10527184;28;20193;-79
2023/05/29 16:57:08;;;;;;;7.07;2.67;;;;;21.20;101810.00;;;;10478013;28;20567;-80
2023/05/29 17:02:10;;;;;;;10.70;2.97;;;;;20.90;101809.00;;;;10513808;28;20594;-81
2023/05/29 17:07:11;;;;;;;10.02;2.13;;;;;20.80;101808.00;;;;10510119;28;20221;-80
2023/05/29 17:12:12;;;;;;;8.77;2.22;;;;;20.60;101819.00;;;;10489414;28;20212;-79
2023/05/29 17:17:14;;;;;;;8.75;3.03;;;;;20.50;101815.00;;;;10527659;28;20361;-81
2023/05/29 17:22:20;;;;;;;7.65;2.63;;;;;20.50;101807.00;;;;10493922;28;20289;-79
2023/05/29 17:27:21;;;;;;;7.65;2.72;;;;;20.40;101806.00;;;;10534729;28;20254;-80
2023/05/29 17:32:22;;;;;;;9.38;2.58;;;;;20.30;101810.00;;;;10479580;28;20602;-80
2023/05/29 17:37:24;;;;;;;9.57;2.38;;;;;20.20;101816.00;;;;10511333;28;20227;-79
2023/05/29 17:42:25;;;;;;;7.95;2.58;;;;;20.10;101819.00;;;;10490968;28;20225;-80
2023/05/29 17:47:26;;;;;;;7.65;2.65;;;;;19.90;101822.00;;;;10533985;28;20205;-81
2023/05/29 17:52:27;;;;;;;4.93;2.33;;;;;19.80;101812.00;;;;10503639;28;20201;-80
2023/05/29 17:57:29;;;;;;;8.75;2.63;;;;;19.80;101822.00;;;;10511255;28;20202;-80
2023/05/29 18:02:30;;;;;;;5.75;2.10;;;;;19.70;101825.00;;;;10485557;28;20276;-81
2023/05/29 18:07:31;;;;;;;8.75;3.17;;;;;19.60;101823.00;;;;10484654;28;20204;-81
2023/05/29 18:12:33;;;;;;;9.70;2.97;;;;;19.50;101826.00;;;;10527058;28;20197;-82
2023/05/29 18:17:46;;;;;;;6.88;3.00;;;;;19.40;101815.00;;;;10489887;28;20334;-81
2023/05/29 18:22:48;;;;;;;7.90;2.33;;;;;19.30;101813.00;;;;10487952;28;20224;-77
2023/05/29 18:27:50;;;;;;;7.50;2.70;;;;;19.20;101813.00;;;;10418013;28;20209;-75
2023/05/29 18:32:53;;;;;;;9.70;2.92;;;;;19.10;101821.00;;;;10374543;28;20217;-79
2023/05/29 18:37:54;;;;;;;12.65;3.30;;;;;19.00;101826.00;;;;10462276;28;20735;-77
2023/05/29 18:42:56;;;;;;;7.47;2.72;;;;;18.80;101825.00;;;;10453711;28;20255;-76
2023/05/29 18:47:58;;;;;;;9.77;2.70;;;;;18.70;101823.00;;;;10492598;28;20196;-82
2023/05/29 18:52:59;;;;;;;7.55;2.20;;;;;18.50;101826.00;;;;10524817;28;20181;-81
2023/05/29 18:58:02;;;;;;;9.65;2.72;;;;;18.40;101828.00;;;;10514316;28;20659;-81
2023/05/29 19:03:03;;;;;;;7.38;2.50;;;;;18.10;101823.00;;;;10500318;28;20218;-83
2023/05/29 19:08:09;;;;;;;8.73;2.92;;;;;17.90;101826.00;;;;10501170;28;20567;-81
2023/05/29 19:13:11;;;;;;;10.10;2.65;;;;;17.80;101834.00;;;;10515291;28;20204;-82
2023/05/29 19:18:12;;;;;;;9.57;3.17;;;;;17.60;101831.00;;;;10511237;28;20223;-80
2023/05/29 19:23:13;;;;;;;8.25;2.25;;;;;17.40;101835.00;;;;10517551;28;20345;-80
2023/05/29 19:28:15;;;;;;;7.32;2.20;;;;;17.20;101837.00;;;;10542735;28;20228;-81
2023/05/29 19:33:17;;;;;;;9.88;2.90;;;;;17.00;101848.00;;;;10524772;28;20291;-81
2023/05/29 19:38:18;;;;;;;8.32;2.53;;;;;16.70;101853.00;;;;10524147;28;20711;-81
2023/05/29 19:43:19;;;;;;;10.13;2.88;;;;;16.50;101855.00;;;;10525004;28;20197;-80
2023/05/29 19:48:21;;;;;;;14.40;3.30;;;;;16.30;101858.00;;;;10542336;28;20189;-80
2023/05/29 19:53:22;;;;;;;12.25;3.00;;;;;16.10;101858.00;;;;10524411;28;20569;-76
2023/05/29 19:58:24;;;;;;;10.47;3.03;;;;;15.90;101864.00;;;;10537633;28;20668;-74
2023/05/29 20:03:27;;;;;;;16.77;3.20;;;;;15.80;101878.00;;;;10516884;28;20224;-73
2023/05/29 20:08:29;;;;;;;13.10;3.33;;;;;15.60;101882.00;;;;10504849;28;20682;-73
2023/05/29 20:13:30;;;;;;;12.93;3.53;;;;;15.50;101889.00;;;;10540845;28;20207;-73
2023/05/29 20:18:32;;;;;;;15.37;3.17;;;;;15.40;101892.00;;;;10496923;28;20201;-72
2023/05/29 20:23:33;;;;;;;8.23;2.83;;;;;15.30;101905.00;;;;10464113;28;20205;-73
2023/05/29 20:28:35;;;;;;;8.23;2.67;;;;;15.20;101907.00;;;;10507777;28;20198;-82
2023/05/29 20:33:37;;;;;;;7.73;2.87;;;;;15.10;101908.00;;;;10495394;28;20212;-80
2023/05/29 20:38:38;;;;;;;13.20;3.07;;;;;15.00;101920.00;;;;10520355;28;20196;-74
2023/05/29 20:43:40;;;;;;;12.37;3.03;;;;;14.80;101920.00;;;;10486538;28;20672;-74
2023/05/29 20:48:42;;;;;;;15.57;3.10;;;;;14.60;101922.00;;;;10517875;28;20200;-73
2023/05/29 20:53:43;;;;;;;11.53;3.00;;;;;14.50;101917.00;;;;10490334;28;20655;-81
2023/05/29 20:58:45;;;;;;;13.20;3.40;;;;;14.30;101924.00;;;;10481150;28;20213;-80
2023/05/29 21:03:46;;;;;;;10.07;2.87;;;;;14.20;101927.00;;;;10464245;28;20236;-81
2023/05/29 21:08:48;;;;;;;10.57;2.93;;;;;14.10;101927.00;;;;10481636;28;20205;-81
2023/05/29 21:13:49;;;;;;;15.77;3.57;;;;;14.00;101928.00;;;;10500873;28;20216;-80
2023/05/29 21:18:50;;;;;;;8.23;2.90;;;;;13.90;101930.00;;;;10533131;28;20216;-81
2023/05/29 21:23:54;;;;;;;11.93;2.63;;;;;13.80;101930.00;;;;10519019;28;20288;-82
2023/05/29 21:28:55;;;;;;;11.13;2.90;;;;;13.70;101918.00;;;;10507287;28;20213;-79
2023/05/29 21:33:57;;;;;;;13.40;2.80;;;;;13.60;101925.00;;;;10503769;28;20201;-79
2023/05/29 21:38:58;;;;;;;12.57;2.80;;;;;13.50;101916.00;;;;10534844;28;20223;-79
2023/05/29 21:43:59;;;;;;;11.17;2.83;;;;;13.40;101931.00;;;;10527311;28;20200;-80
2023/05/29 21:49:00;;;;;;;10.50;3.23;;;;;13.40;101926.00;;;;10545031;28;20580;-80
2023/05/29 21:54:02;;;;;;;9.10;2.73;;;;;13.20;101932.00;;;;10545616;28;20655;-79
2023/05/29 21:59:04;;;;;;;9.20;2.83;;;;;13.20;101930.00;;;;10545858;28;20211;-79
2023/05/29 22:04:07;;;;;;;11.80;2.90;;;;;13.10;101936.00;;;;10545260;28;20200;-79
2023/05/29 22:09:08;;;;;;;11.10;2.80;;;;;13.00;101936.00;;;;10516095;28;20240;-79
2023/05/29 22:14:10;;;;;;;12.23;3.00;;;;;12.90;101937.00;;;;10469514;28;20208;-80
2023/05/29 22:19:11;;;;;;;11.03;2.97;;;;;12.90;101936.00;;;;10500917;28;20228;-82
2023/05/29 22:24:13;;;;;;;10.73;2.80;;;;;12.80;101942.00;;;;10512144;28;20200;-80
2023/05/29 22:29:14;;;;;;;11.53;2.47;;;;;12.70;101948.00;;;;10541092;28;20253;-80
2023/05/29 22:34:16;;;;;;;6.03;3.03;;;;;12.60;101965.00;;;;10526911;28;20223;-80
2023/05/29 22:39:18;;;;;;;12.90;2.63;;;;;12.50;101970.00;;;;10524652;28;20303;-80
2023/05/29 22:44:20;;;;;;;14.73;2.87;;;;;12.40;101967.00;;;;10526144;28;20281;-81
2023/05/29 22:49:21;;;;;;;9.67;2.93;;;;;12.30;101964.00;;;;10525127;28;20197;-81
2023/05/29 22:54:22;;;;;;;9.60;2.93;;;;;12.30;101978.00;;;;10525781;28;20201;-81
2023/05/29 22:59:24;;;;;;;15.10;2.40;;;;;12.20;101974.00;;;;10506258;28;20539;-81
2023/05/29 23:04:26;;;;;;;8.63;2.53;;;;;12.10;101979.00;;;;10525622;28;20221;-81
2023/05/29 23:09:27;;;;;;;12.67;2.60;;;;;12.00;101968.00;;;;10456598;28;20205;-81
2023/05/29 23:14:28;;;;;;;6.90;2.10;;;;;11.90;101977.00;;;;10483830;28;20247;-81
2023/05/29 23:19:30;;;;;;;12.73;2.30;;;;;11.90;101979.00;;;;10483704;28;20299;-80
2023/05/29 23:24:31;;;;;;;9.00;2.60;;;;;11.80;101985.00;;;;10527099;28;20204;-80
2023/05/29 23:29:33;;;;;;;8.07;2.30;;;;;11.70;101993.00;;;;10499619;28;20201;-73
2023/05/29 23:34:35;;;;;;;12.27;3.20;;;;;11.70;102003.00;;;;10493506;28;20201;-73
2023/05/29 23:39:36;;;;;;;13.60;3.53;;;;;11.60;102002.00;;;;10509204;28;20217;-73
2023/05/29 23:44:37;;;;;;;9.27;2.60;;;;;11.50;102000.00;;;;10489765;28;20663;-77
2023/05/29 23:49:39;;;;;;;9.77;2.73;;;;;11.50;102004.00;;;;10462511;28;20214;-74
2023/05/29 23:54:40;;;;;;;11.63;3.00;;;;;11.40;102008.00;;;;10486136;28;20200;-77
2023/05/29 23:59:41;;;;;;;8.70;2.60;;;;;11.40;102008.00;;;;10494826;28;20307;-77
